sensor_id;sensor_type;location;lat;lon;timestamp;pressure;altitude;pressure_sealevel;temperature;humidity
59190;BME280;50749;51.636;4.948;2023-03-14T00:01:57;98994.09;;;17.98;53.70
59190;BME280;50749;51.636;4.948;2023-03-14T00:04:23;98982.25;;;17.98;53.96
59190;BME280;50749;51.636;4.948;2023-03-14T00:06:48;98975.13;;;17.97;53.73
59190;BME280;50749;51.636;4.948;2023-03-14T00:09:16;98979.88;;;17.96;53.78
59190;BME280;50749;51.636;4.948;2023-03-14T00:11:42;98981.50;;;17.94;53.65
59190;BME280;50749;51.636;4.948;2023-03-14T00:14:08;98987.03;;;17.94;53.75
59190;BME280;50749;51.636;4.948;2023-03-14T00:16:34;98982.66;;;17.93;53.72
59190;BME280;50749;51.636;4.948;2023-03-14T00:19:00;98994.13;;;17.91;53.57
59190;BME280;50749;51.636;4.948;2023-03-14T00:21:26;98982.69;;;17.89;53.44
59190;BME280;50749;51.636;4.948;2023-03-14T00:23:52;98985.47;;;17.89;53.66
59190;BME280;50749;51.636;4.948;2023-03-14T00:26:20;98984.69;;;17.89;53.45
59190;BME280;50749;51.636;4.948;2023-03-14T00:28:50;98998.09;;;17.87;53.37
59190;BME280;50749;51.636;4.948;2023-03-14T00:31:16;98989.78;;;17.87;53.80
59190;BME280;50749;51.636;4.948;2023-03-14T00:33:43;98986.22;;;17.86;53.54
59190;BME280;50749;51.636;4.948;2023-03-14T00:36:14;98993.31;;;17.83;53.59
59190;BME280;50749;51.636;4.948;2023-03-14T00:38:41;98993.31;;;17.83;53.34
59190;BME280;50749;51.636;4.948;2023-03-14T00:41:09;98980.72;;;17.82;53.69
59190;BME280;50749;51.636;4.948;2023-03-14T00:43:37;98980.34;;;17.80;53.81
59190;BME280;50749;51.636;4.948;2023-03-14T00:46:03;98984.66;;;17.81;53.39
59190;BME280;50749;51.636;4.948;2023-03-14T00:48:29;98983.09;;;17.80;53.34
59190;BME280;50749;51.636;4.948;2023-03-14T00:50:55;98980.34;;;17.80;53.63
59190;BME280;50749;51.636;4.948;2023-03-14T00:53:21;98983.88;;;17.81;53.75
59190;BME280;50749;51.636;4.948;2023-03-14T00:55:47;98980.75;;;17.79;53.18
59190;BME280;50749;51.636;4.948;2023-03-14T00:58:15;98983.50;;;17.79;53.33
59190;BME280;50749;51.636;4.948;2023-03-14T01:00:42;98979.16;;;17.78;53.39
59190;BME280;50749;51.636;4.948;2023-03-14T01:03:09;98990.19;;;17.78;53.22
59190;BME280;50749;51.636;4.948;2023-03-14T01:05:34;98990.59;;;17.76;53.46
59190;BME280;50749;51.636;4.948;2023-03-14T01:08:01;99002.88;;;17.75;53.68
59190;BME280;50749;51.636;4.948;2023-03-14T01:10:27;98994.56;;;17.75;53.46
59190;BME280;50749;51.636;4.948;2023-03-14T01:12:53;98998.13;;;17.76;53.25
59190;BME280;50749;51.636;4.948;2023-03-14T01:15:18;98998.50;;;17.74;53.57
59190;BME280;50749;51.636;4.948;2023-03-14T01:17:45;98997.75;;;17.74;53.22
59190;BME280;50749;51.636;4.948;2023-03-14T01:20:12;98996.94;;;17.73;53.52
59190;BME280;50749;51.636;4.948;2023-03-14T01:22:40;98987.06;;;17.72;53.54
59190;BME280;50749;51.636;4.948;2023-03-14T01:25:08;98989.84;;;17.72;53.61
59190;BME280;50749;51.636;4.948;2023-03-14T01:27:34;98992.22;;;17.70;53.40
59190;BME280;50749;51.636;4.948;2023-03-14T01:30:00;98992.22;;;17.70;53.56
59190;BME280;50749;51.636;4.948;2023-03-14T01:32:26;98997.75;;;17.70;53.61
59190;BME280;50749;51.636;4.948;2023-03-14T01:34:52;98992.63;;;17.69;53.58
59190;BME280;50749;51.636;4.948;2023-03-14T01:37:18;98975.25;;;17.68;53.32
59190;BME280;50749;51.636;4.948;2023-03-14T01:39:43;98968.94;;;17.68;53.24
59190;BME280;50749;51.636;4.948;2023-03-14T01:42:09;98972.88;;;17.67;53.56
59190;BME280;50749;51.636;4.948;2023-03-14T01:47:18;98967.34;;;17.67;53.42
59190;BME280;50749;51.636;4.948;2023-03-14T01:49:47;98964.97;;;17.65;53.48
59190;BME280;50749;51.636;4.948;2023-03-14T01:52:32;98966.19;;;17.64;53.42
59190;BME280;50749;51.636;4.948;2023-03-14T01:55:07;98970.13;;;17.63;53.54
59190;BME280;50749;51.636;4.948;2023-03-14T01:57:38;98967.38;;;17.63;53.68
59190;BME280;50749;51.636;4.948;2023-03-14T02:00:11;98960.28;;;17.62;53.50
59190;BME280;50749;51.636;4.948;2023-03-14T02:02:44;98954.75;;;17.62;53.39
59190;BME280;50749;51.636;4.948;2023-03-14T02:05:14;98947.66;;;17.61;53.39
59190;BME280;50749;51.636;4.948;2023-03-14T02:07:51;98939.34;;;17.61;53.37
59190;BME280;50749;51.636;4.948;2023-03-14T02:10:21;98938.97;;;17.59;53.49
59190;BME280;50749;51.636;4.948;2023-03-14T02:12:49;98939.75;;;17.59;53.09
59190;BME280;50749;51.636;4.948;2023-03-14T02:15:16;98936.22;;;17.59;53.39
59190;BME280;50749;51.636;4.948;2023-03-14T02:17:43;98932.63;;;17.58;53.53
59190;BME280;50749;51.636;4.948;2023-03-14T02:20:39;98929.09;;;17.58;53.39
59190;BME280;50749;51.636;4.948;2023-03-14T02:23:03;98933.06;;;17.57;53.22
59190;BME280;50749;51.636;4.948;2023-03-14T02:25:43;98929.50;;;17.56;53.45
59190;BME280;50749;51.636;4.948;2023-03-14T02:28:12;98928.72;;;17.56;53.14
59190;BME280;50749;51.636;4.948;2023-03-14T02:30:38;98933.47;;;17.55;53.52
59190;BME280;50749;51.636;4.948;2023-03-14T02:33:08;98931.09;;;17.54;53.45
59190;BME280;50749;51.636;4.948;2023-03-14T02:35:41;98931.09;;;17.54;53.67
59190;BME280;50749;51.636;4.948;2023-03-14T02:40:52;98922.44;;;17.52;53.55
59190;BME280;50749;51.636;4.948;2023-03-14T02:43:18;98922.44;;;17.52;53.63
59190;BME280;50749;51.636;4.948;2023-03-14T02:45:46;98920.06;;;17.50;53.46
59190;BME280;50749;51.636;4.948;2023-03-14T02:48:19;98917.31;;;17.50;53.42
59190;BME280;50749;51.636;4.948;2023-03-14T02:50:47;98910.97;;;17.50;53.43
59190;BME280;50749;51.636;4.948;2023-03-14T02:53:17;98915.72;;;17.49;53.48
59190;BME280;50749;51.636;4.948;2023-03-14T02:55:48;98920.47;;;17.49;53.30
59190;BME280;50749;51.636;4.948;2023-03-14T02:58:14;98926.41;;;17.47;53.48
59190;BME280;50749;51.636;4.948;2023-03-14T03:00:40;98921.66;;;17.48;53.25
59190;BME280;50749;51.636;4.948;2023-03-14T03:03:06;98917.31;;;17.46;53.49
59190;BME280;50749;51.636;4.948;2023-03-14T03:05:32;98925.59;;;17.46;53.03
59190;BME280;50749;51.636;4.948;2023-03-14T03:07:58;98914.16;;;17.44;53.31
59190;BME280;50749;51.636;4.948;2023-03-14T03:10:24;98920.50;;;17.45;53.34
59190;BME280;50749;51.636;4.948;2023-03-14T03:12:50;98916.91;;;17.44;53.46
59190;BME280;50749;51.636;4.948;2023-03-14T03:15:17;98912.59;;;17.43;53.01
59190;BME280;50749;51.636;4.948;2023-03-14T03:17:43;98916.53;;;17.42;53.31
59190;BME280;50749;51.636;4.948;2023-03-14T03:20:09;98916.53;;;17.42;53.23
59190;BME280;50749;51.636;4.948;2023-03-14T03:22:36;98908.25;;;17.42;53.28
59190;BME280;50749;51.636;4.948;2023-03-14T03:25:07;98911.00;;;17.42;53.29
59190;BME280;50749;51.636;4.948;2023-03-14T03:27:34;98909.44;;;17.41;53.34
59190;BME280;50749;51.636;4.948;2023-03-14T03:30:00;98900.38;;;17.41;53.23
59190;BME280;50749;51.636;4.948;2023-03-14T03:32:27;98912.19;;;17.41;53.34
59190;BME280;50749;51.636;4.948;2023-03-14T03:34:52;98898.78;;;17.40;53.33
59190;BME280;50749;51.636;4.948;2023-03-14T03:37:19;98902.75;;;17.39;53.32
59190;BME280;50749;51.636;4.948;2023-03-14T03:39:44;98888.94;;;17.39;53.31
59190;BME280;50749;51.636;4.948;2023-03-14T03:42:10;98890.91;;;17.38;52.99
59190;BME280;50749;51.636;4.948;2023-03-14T03:44:36;98892.88;;;17.38;53.15
59190;BME280;50749;51.636;4.948;2023-03-14T03:47:03;98886.56;;;17.37;53.45
59190;BME280;50749;51.636;4.948;2023-03-14T03:49:32;98886.97;;;17.36;53.36
59190;BME280;50749;51.636;4.948;2023-03-14T03:51:58;98891.31;;;17.37;53.55
59190;BME280;50749;51.636;4.948;2023-03-14T03:54:24;98896.84;;;17.37;53.14
59190;BME280;50749;51.636;4.948;2023-03-14T03:56:51;98901.56;;;17.36;53.44
59190;BME280;50749;51.636;4.948;2023-03-14T03:59:17;98900.78;;;17.36;53.45
59190;BME280;50749;51.636;4.948;2023-03-14T04:01:43;98892.50;;;17.36;53.09
59190;BME280;50749;51.636;4.948;2023-03-14T04:04:09;98894.47;;;17.35;53.15
59190;BME280;50749;51.636;4.948;2023-03-14T04:06:35;98899.19;;;17.35;53.43
59190;BME280;50749;51.636;4.948;2023-03-14T04:09:02;98906.72;;;17.34;53.37
59190;BME280;50749;51.636;4.948;2023-03-14T04:11:28;98908.69;;;17.34;53.48
59190;BME280;50749;51.636;4.948;2023-03-14T04:13:54;98905.94;;;17.34;53.36
59190;BME280;50749;51.636;4.948;2023-03-14T04:16:23;98905.16;;;17.33;53.19
59190;BME280;50749;51.636;4.948;2023-03-14T04:18:49;98895.28;;;17.32;53.45
59190;BME280;50749;51.636;4.948;2023-03-14T04:21:15;98892.50;;;17.32;53.39
59190;BME280;50749;51.636;4.948;2023-03-14T04:23:41;98896.44;;;17.35;53.51
59190;BME280;50749;51.636;4.948;2023-03-14T04:26:07;98893.28;;;17.36;53.58
59190;BME280;50749;51.636;4.948;2023-03-14T04:28:33;98888.53;;;17.40;53.60
59190;BME280;50749;51.636;4.948;2023-03-14T04:31:07;98889.28;;;17.44;53.49
59190;BME280;50749;51.636;4.948;2023-03-14T04:33:33;98890.09;;;17.49;53.02
59190;BME280;50749;51.636;4.948;2023-03-14T04:35:59;98888.47;;;17.55;53.22
59190;BME280;50749;51.636;4.948;2023-03-14T04:38:25;98891.59;;;17.60;52.92
59190;BME280;50749;51.636;4.948;2023-03-14T04:40:51;98887.63;;;17.65;52.89
59190;BME280;50749;51.636;4.948;2023-03-14T04:43:17;98891.16;;;17.69;53.06
59190;BME280;50749;51.636;4.948;2023-03-14T04:45:43;98887.97;;;17.74;53.01
59190;BME280;50749;51.636;4.948;2023-03-14T04:48:08;98888.72;;;17.78;53.02
59190;BME280;50749;51.636;4.948;2023-03-14T04:50:35;98885.97;;;17.82;53.24
59190;BME280;50749;51.636;4.948;2023-03-14T04:53:01;98889.09;;;17.84;52.92
59190;BME280;50749;51.636;4.948;2023-03-14T04:55:27;98889.09;;;17.88;53.16
59190;BME280;50749;51.636;4.948;2023-03-14T04:57:53;98889.84;;;17.92;53.43
59190;BME280;50749;51.636;4.948;2023-03-14T05:00:19;98883.53;;;17.95;53.03
59190;BME280;50749;51.636;4.948;2023-03-14T05:02:45;98889.44;;;18.00;53.11
59190;BME280;50749;51.636;4.948;2023-03-14T05:05:11;98875.56;;;18.04;53.44
59190;BME280;50749;51.636;4.948;2023-03-14T05:07:37;98870.00;;;18.08;52.98
59190;BME280;50749;51.636;4.948;2023-03-14T05:10:03;98864.44;;;18.11;52.92
59190;BME280;50749;51.636;4.948;2023-03-14T05:12:29;98863.66;;;18.14;52.85
59190;BME280;50749;51.636;4.948;2023-03-14T05:14:55;98870.31;;;18.17;53.19
59190;BME280;50749;51.636;4.948;2023-03-14T05:17:20;98861.63;;;18.18;53.17
59190;BME280;50749;51.636;4.948;2023-03-14T05:19:47;98860.44;;;18.19;53.11
59190;BME280;50749;51.636;4.948;2023-03-14T05:22:13;98850.94;;;18.20;52.92
59190;BME280;50749;51.636;4.948;2023-03-14T05:24:39;98859.63;;;18.23;52.88
59190;BME280;50749;51.636;4.948;2023-03-14T05:27:05;98849.72;;;18.25;53.04
59190;BME280;50749;51.636;4.948;2023-03-14T05:29:30;98852.84;;;18.27;53.32
59190;BME280;50749;51.636;4.948;2023-03-14T05:31:56;98858.38;;;18.31;53.33
59190;BME280;50749;51.636;4.948;2023-03-14T05:34:22;98855.59;;;18.34;52.91
59190;BME280;50749;51.636;4.948;2023-03-14T05:36:48;98853.97;;;18.37;53.03
59190;BME280;50749;51.636;4.948;2023-03-14T05:39:14;98865.00;;;18.41;53.20
59190;BME280;50749;51.636;4.948;2023-03-14T05:41:39;98850.75;;;18.42;53.06
59190;BME280;50749;51.636;4.948;2023-03-14T05:44:05;98850.75;;;18.42;53.07
59190;BME280;50749;51.636;4.948;2023-03-14T05:46:31;98856.28;;;18.42;53.85
59190;BME280;50749;51.636;4.948;2023-03-14T05:48:58;98855.88;;;18.44;53.79
59190;BME280;50749;51.636;4.948;2023-03-14T05:51:24;98853.47;;;18.46;53.45
59190;BME280;50749;51.636;4.948;2023-03-14T05:53:51;98853.91;;;18.44;53.36
59190;BME280;50749;51.636;4.948;2023-03-14T05:56:16;98869.72;;;18.44;53.95
59190;BME280;50749;51.636;4.948;2023-03-14T05:58:42;98861.78;;;18.46;54.12
59190;BME280;50749;51.636;4.948;2023-03-14T06:01:08;98866.09;;;18.50;53.54
59190;BME280;50749;51.636;4.948;2023-03-14T06:03:34;98867.66;;;18.55;53.40
59190;BME280;50749;51.636;4.948;2023-03-14T06:06:00;98865.63;;;18.59;53.47
59190;BME280;50749;51.636;4.948;2023-03-14T06:08:26;98861.25;;;18.62;53.58
59190;BME280;50749;51.636;4.948;2023-03-14T06:10:53;98859.63;;;18.64;53.06
59190;BME280;50749;51.636;4.948;2023-03-14T06:13:20;98863.56;;;18.67;53.22
59190;BME280;50749;51.636;4.948;2023-03-14T06:15:45;98864.75;;;18.69;53.22
59190;BME280;50749;51.636;4.948;2023-03-14T06:18:11;98851.69;;;18.70;53.08
59190;BME280;50749;51.636;4.948;2023-03-14T06:20:38;98847.28;;;18.72;52.99
59190;BME280;50749;51.636;4.948;2023-03-14T06:23:05;98855.19;;;18.74;53.27
59190;BME280;50749;51.636;4.948;2023-03-14T06:25:32;98863.09;;;18.75;52.80
59190;BME280;50749;51.636;4.948;2023-03-14T06:27:59;98865.44;;;18.77;53.25
59190;BME280;50749;51.636;4.948;2023-03-14T06:30:24;98863.91;;;18.72;53.01
59190;BME280;50749;51.636;4.948;2023-03-14T06:32:50;98872.25;;;18.69;53.06
59190;BME280;50749;51.636;4.948;2023-03-14T06:35:16;98878.59;;;18.66;52.91
59190;BME280;50749;51.636;4.948;2023-03-14T06:37:42;98873.47;;;18.64;53.19
59190;BME280;50749;51.636;4.948;2023-03-14T06:40:09;98903.13;;;18.64;53.61
59190;BME280;50749;51.636;4.948;2023-03-14T06:42:36;98956.13;;;18.62;53.74
59190;BME280;50749;51.636;4.948;2023-03-14T06:45:02;98973.53;;;18.63;53.92
59190;BME280;50749;51.636;4.948;2023-03-14T06:47:28;98973.94;;;18.61;53.24
59190;BME280;50749;51.636;4.948;2023-03-14T06:49:54;98973.94;;;18.61;53.43
59190;BME280;50749;51.636;4.948;2023-03-14T06:52:20;98993.72;;;18.60;53.47
59190;BME280;50749;51.636;4.948;2023-03-14T06:54:46;98993.72;;;18.60;54.22
59190;BME280;50749;51.636;4.948;2023-03-14T06:57:11;99004.78;;;18.60;53.73
59190;BME280;50749;51.636;4.948;2023-03-14T06:59:37;99016.63;;;18.60;53.58
59190;BME280;50749;51.636;4.948;2023-03-14T07:02:03;99029.28;;;18.57;53.79
59190;BME280;50749;51.636;4.948;2023-03-14T07:04:29;99028.09;;;18.59;53.59
59190;BME280;50749;51.636;4.948;2023-03-14T07:06:55;99043.53;;;18.60;53.44
59190;BME280;50749;51.636;4.948;2023-03-14T07:09:20;99040.75;;;18.60;53.65
59190;BME280;50749;51.636;4.948;2023-03-14T07:11:46;99055.00;;;18.58;53.65
59190;BME280;50749;51.636;4.948;2023-03-14T07:14:12;99059.31;;;18.59;53.95
59190;BME280;50749;51.636;4.948;2023-03-14T07:16:38;99073.56;;;18.57;53.65
59190;BME280;50749;51.636;4.948;2023-03-14T07:19:04;99083.06;;;18.56;53.72
59190;BME280;50749;51.636;4.948;2023-03-14T07:21:30;99097.31;;;18.55;53.91
59190;BME280;50749;51.636;4.948;2023-03-14T07:23:57;99107.59;;;18.54;53.85
59190;BME280;50749;51.636;4.948;2023-03-14T07:26:23;99105.25;;;18.53;53.93
59190;BME280;50749;51.636;4.948;2023-03-14T07:28:49;99115.50;;;18.52;53.91
59190;BME280;50749;51.636;4.948;2023-03-14T07:31:15;99122.25;;;18.51;54.04
59190;BME280;50749;51.636;4.948;2023-03-14T07:33:40;99134.91;;;18.49;53.91
59190;BME280;50749;51.636;4.948;2023-03-14T07:36:07;99155.44;;;18.51;54.01
59190;BME280;50749;51.636;4.948;2023-03-14T07:38:33;99159.78;;;18.49;54.15
59190;BME280;50749;51.636;4.948;2023-03-14T07:41:04;99166.91;;;18.50;53.97
59190;BME280;50749;51.636;4.948;2023-03-14T07:43:30;99178.00;;;18.50;54.19
59190;BME280;50749;51.636;4.948;2023-03-14T07:45:56;99184.31;;;18.47;54.72
59190;BME280;50749;51.636;4.948;2023-03-14T07:48:22;99195.78;;;18.45;54.30
59190;BME280;50749;51.636;4.948;2023-03-14T07:50:51;99196.16;;;18.47;54.47
59190;BME280;50749;51.636;4.948;2023-03-14T07:53:18;99208.03;;;18.48;54.05
59190;BME280;50749;51.636;4.948;2023-03-14T07:55:44;99207.25;;;18.47;54.00
59190;BME280;50749;51.636;4.948;2023-03-14T07:58:11;99223.84;;;18.47;53.67
59190;BME280;50749;51.636;4.948;2023-03-14T08:00:37;99230.56;;;18.46;53.91
59190;BME280;50749;51.636;4.948;2023-03-14T08:03:03;99242.03;;;18.45;53.98
59190;BME280;50749;51.636;4.948;2023-03-14T08:05:29;99250.34;;;18.45;53.66
59190;BME280;50749;51.636;4.948;2023-03-14T08:07:54;99261.03;;;18.43;53.66
59190;BME280;50749;51.636;4.948;2023-03-14T08:10:20;99266.97;;;18.41;54.03
59190;BME280;50749;51.636;4.948;2023-03-14T08:12:58;99270.13;;;18.40;54.02
59190;BME280;50749;51.636;4.948;2023-03-14T08:15:25;99285.13;;;18.38;53.84
59190;BME280;50749;51.636;4.948;2023-03-14T08:17:51;99288.69;;;18.39;53.76
59190;BME280;50749;51.636;4.948;2023-03-14T08:20:25;99315.19;;;18.36;53.83
59190;BME280;50749;51.636;4.948;2023-03-14T08:22:51;99311.63;;;18.36;53.71
59190;BME280;50749;51.636;4.948;2023-03-14T08:25:17;99317.97;;;18.33;53.62
59190;BME280;50749;51.636;4.948;2023-03-14T08:27:43;99325.06;;;18.30;54.05
59190;BME280;50749;51.636;4.948;2023-03-14T08:30:12;99336.53;;;18.29;54.12
59190;BME280;50749;51.636;4.948;2023-03-14T08:32:38;99336.91;;;18.27;53.81
59190;BME280;50749;51.636;4.948;2023-03-14T08:35:05;99340.09;;;18.26;53.62
59190;BME280;50749;51.636;4.948;2023-03-14T08:37:32;99357.88;;;18.25;53.81
59190;BME280;50749;51.636;4.948;2023-03-14T08:39:58;99359.06;;;18.24;53.89
59190;BME280;50749;51.636;4.948;2023-03-14T08:42:24;99378.03;;;18.22;53.54
59190;BME280;50749;51.636;4.948;2023-03-14T08:44:51;99380.00;;;18.21;53.73
59190;BME280;50749;51.636;4.948;2023-03-14T08:47:17;99398.56;;;18.20;53.54
59190;BME280;50749;51.636;4.948;2023-03-14T08:49:43;99388.69;;;18.19;53.83
59190;BME280;50749;51.636;4.948;2023-03-14T08:52:09;99396.22;;;18.19;53.67
59190;BME280;50749;51.636;4.948;2023-03-14T08:54:35;99422.28;;;18.18;53.79
59190;BME280;50749;51.636;4.948;2023-03-14T08:57:00;99449.16;;;18.17;53.48
59190;BME280;50749;51.636;4.948;2023-03-14T08:59:26;99458.63;;;18.16;53.80
59190;BME280;50749;51.636;4.948;2023-03-14T09:01:52;99461.00;;;18.14;53.21
59190;BME280;50749;51.636;4.948;2023-03-14T09:04:20;99472.06;;;18.14;53.62
59190;BME280;50749;51.636;4.948;2023-03-14T09:06:47;99488.25;;;18.12;53.34
59190;BME280;50749;51.636;4.948;2023-03-14T09:09:13;99494.19;;;18.11;53.02
59190;BME280;50749;51.636;4.948;2023-03-14T09:11:39;99506.41;;;18.10;53.02
59190;BME280;50749;51.636;4.948;2023-03-14T09:14:05;99516.69;;;18.09;53.27
59190;BME280;50749;51.636;4.948;2023-03-14T09:16:33;99543.16;;;18.07;53.33
59190;BME280;50749;51.636;4.948;2023-03-14T09:18:59;99559.34;;;18.05;53.31
59190;BME280;50749;51.636;4.948;2023-03-14T09:21:28;99571.56;;;18.04;52.79
59190;BME280;50749;51.636;4.948;2023-03-14T09:23:54;99587.00;;;18.05;53.72
59190;BME280;50749;51.636;4.948;2023-03-14T09:26:19;99583.84;;;18.03;53.59
59190;BME280;50749;51.636;4.948;2023-03-14T09:28:46;99609.91;;;18.01;53.38
59190;BME280;50749;51.636;4.948;2023-03-14T09:31:12;99614.63;;;18.01;53.70
59190;BME280;50749;51.636;4.948;2023-03-14T09:33:38;99611.88;;;18.01;53.62
59190;BME280;50749;51.636;4.948;2023-03-14T09:36:05;99623.69;;;17.94;52.82
59190;BME280;50749;51.636;4.948;2023-03-14T09:38:31;99629.13;;;17.83;52.31
59190;BME280;50749;51.636;4.948;2023-03-14T09:41:00;99644.88;;;17.76;52.79
59190;BME280;50749;51.636;4.948;2023-03-14T09:43:30;99651.97;;;17.73;52.66
59190;BME280;50749;51.636;4.948;2023-03-14T09:45:57;99670.50;;;17.69;52.81
59190;BME280;50749;51.636;4.948;2023-03-14T09:48:30;99676.06;;;17.73;53.47
59190;BME280;50749;51.636;4.948;2023-03-14T09:50:59;99681.59;;;17.76;53.80
59190;BME280;50749;51.636;4.948;2023-03-14T09:53:41;99695.84;;;17.78;53.28
59190;BME280;50749;51.636;4.948;2023-03-14T09:56:23;99707.31;;;17.80;53.29
59190;BME280;50749;51.636;4.948;2023-03-14T09:58:54;99722.31;;;17.83;53.05
59190;BME280;50749;51.636;4.948;2023-03-14T10:01:30;99725.88;;;17.83;52.95
59190;BME280;50749;51.636;4.948;2023-03-14T10:04:04;99745.22;;;17.83;53.17
59190;BME280;50749;51.636;4.948;2023-03-14T10:06:32;99759.47;;;17.86;52.88
59190;BME280;50749;51.636;4.948;2023-03-14T10:08:58;99753.16;;;17.85;52.51
59190;BME280;50749;51.636;4.948;2023-03-14T10:11:24;99757.09;;;17.84;52.86
59190;BME280;50749;51.636;4.948;2023-03-14T10:14:11;99778.84;;;17.86;52.96
59190;BME280;50749;51.636;4.948;2023-03-14T10:16:43;99785.53;;;17.85;53.44
59190;BME280;50749;51.636;4.948;2023-03-14T10:19:12;99803.72;;;17.86;53.19
59190;BME280;50749;51.636;4.948;2023-03-14T10:21:43;99805.31;;;17.87;53.10
59190;BME280;50749;51.636;4.948;2023-03-14T10:24:34;99822.72;;;17.87;52.59
59190;BME280;50749;51.636;4.948;2023-03-14T10:27:03;99831.38;;;17.86;52.76
59190;BME280;50749;51.636;4.948;2023-03-14T10:29:32;99836.91;;;17.86;52.96
59190;BME280;50749;51.636;4.948;2023-03-14T10:32:04;99853.50;;;17.86;52.94
59190;BME280;50749;51.636;4.948;2023-03-14T10:34:33;99863.38;;;17.87;52.97
59190;BME280;50749;51.636;4.948;2023-03-14T10:37:18;99874.44;;;17.87;52.75
59190;BME280;50749;51.636;4.948;2023-03-14T10:39:54;99891.03;;;17.87;53.35
59190;BME280;50749;51.636;4.948;2023-03-14T10:42:30;99899.31;;;17.87;52.96
59190;BME280;50749;51.636;4.948;2023-03-14T10:45:04;99911.53;;;17.86;52.48
59190;BME280;50749;51.636;4.948;2023-03-14T10:47:32;99930.91;;;17.86;52.35
59190;BME280;50749;51.636;4.948;2023-03-14T10:50:21;99947.06;;;17.83;52.86
59190;BME280;50749;51.636;4.948;2023-03-14T10:52:49;99951.78;;;17.83;52.87
59190;BME280;50749;51.636;4.948;2023-03-14T10:55:16;99966.81;;;17.82;52.45
59190;BME280;50749;51.636;4.948;2023-03-14T10:57:43;99979.81;;;17.81;52.59
59190;BME280;50749;51.636;4.948;2023-03-14T11:00:20;99984.56;;;17.81;52.51
59190;BME280;50749;51.636;4.948;2023-03-14T11:05:31;100002.69;;;17.78;52.47
59190;BME280;50749;51.636;4.948;2023-03-14T11:08:09;100012.16;;;17.77;52.20
59190;BME280;50749;51.636;4.948;2023-03-14T11:10:43;100015.72;;;17.78;52.00
59190;BME280;50749;51.636;4.948;2023-03-14T11:24:32;100061.94;;;17.77;52.97
59190;BME280;50749;51.636;4.948;2023-03-14T11:35:24;100091.06;;;17.71;52.19
59190;BME280;50749;51.636;4.948;2023-03-14T11:37:57;100093.44;;;17.73;52.10
59190;BME280;50749;51.636;4.948;2023-03-14T11:40:27;100098.19;;;17.72;52.28
59190;BME280;50749;51.636;4.948;2023-03-14T11:45:38;100117.53;;;17.72;51.96
59190;BME280;50749;51.636;4.948;2023-03-14T11:50:59;100117.97;;;17.74;52.22
59190;BME280;50749;51.636;4.948;2023-03-14T11:53:36;100132.94;;;17.73;51.76
59190;BME280;50749;51.636;4.948;2023-03-14T11:56:13;100132.94;;;17.73;51.88
59190;BME280;50749;51.636;4.948;2023-03-14T11:58:54;100141.25;;;17.73;52.04
59190;BME280;50749;51.636;4.948;2023-03-14T12:01:26;100133.75;;;17.74;51.87
59190;BME280;50749;51.636;4.948;2023-03-14T12:04:02;100147.22;;;17.75;52.19
59190;BME280;50749;51.636;4.948;2023-03-14T12:06:38;100152.75;;;17.75;51.74
59190;BME280;50749;51.636;4.948;2023-03-14T12:09:10;100155.88;;;17.74;52.03
59190;BME280;50749;51.636;4.948;2023-03-14T12:11:45;100173.66;;;17.76;52.40
59190;BME280;50749;51.636;4.948;2023-03-14T12:14:19;100167.78;;;17.78;52.00
59190;BME280;50749;51.636;4.948;2023-03-14T12:16:46;100179.63;;;17.78;51.97
59190;BME280;50749;51.636;4.948;2023-03-14T12:19:38;100190.69;;;17.78;51.93
59190;BME280;50749;51.636;4.948;2023-03-14T12:22:24;100195.03;;;17.79;51.80
59190;BME280;50749;51.636;4.948;2023-03-14T12:24:56;100197.81;;;17.79;51.59
59190;BME280;50749;51.636;4.948;2023-03-14T12:30:37;100210.84;;;17.79;51.34
59190;BME280;50749;51.636;4.948;2023-03-14T12:35:45;100217.91;;;17.76;51.27
59190;BME280;50749;51.636;4.948;2023-03-14T12:43:29;100231.72;;;17.76;51.65
59190;BME280;50749;51.636;4.948;2023-03-14T12:48:38;100234.50;;;17.76;51.06
59190;BME280;50749;51.636;4.948;2023-03-14T12:51:36;100250.28;;;17.76;50.84
59190;BME280;50749;51.636;4.948;2023-03-14T12:57:04;100260.97;;;17.77;50.36
59190;BME280;50749;51.636;4.948;2023-03-14T12:59:38;100272.03;;;17.77;50.72
59190;BME280;50749;51.636;4.948;2023-03-14T13:02:21;100272.78;;;17.74;50.96
59190;BME280;50749;51.636;4.948;2023-03-14T13:05:14;100281.50;;;17.76;51.50
59190;BME280;50749;51.636;4.948;2023-03-14T13:12:47;100299.25;;;17.75;50.73
59190;BME280;50749;51.636;4.948;2023-03-14T13:15:26;100300.41;;;17.74;51.02
59190;BME280;50749;51.636;4.948;2023-03-14T13:17:55;100313.47;;;17.74;50.90
59190;BME280;50749;51.636;4.948;2023-03-14T13:20:31;100318.53;;;17.72;49.92
59190;BME280;50749;51.636;4.948;2023-03-14T13:22:58;100321.69;;;17.70;49.83
59190;BME280;50749;51.636;4.948;2023-03-14T13:25:23;100325.25;;;17.71;50.90
59190;BME280;50749;51.636;4.948;2023-03-14T13:27:52;100331.13;;;17.69;50.26
59190;BME280;50749;51.636;4.948;2023-03-14T13:32:51;100350.13;;;17.71;50.56
59190;BME280;50749;51.636;4.948;2023-03-14T13:35:20;100361.97;;;17.71;50.36
59190;BME280;50749;51.636;4.948;2023-03-14T13:37:47;100367.50;;;17.71;50.26
59190;BME280;50749;51.636;4.948;2023-03-14T13:40:19;100363.16;;;17.70;50.10
59190;BME280;50749;51.636;4.948;2023-03-14T13:42:46;100371.44;;;17.70;50.09
59190;BME280;50749;51.636;4.948;2023-03-14T13:45:13;100381.69;;;17.70;49.62
59190;BME280;50749;51.636;4.948;2023-03-14T13:47:39;100391.97;;;17.69;49.39
59190;BME280;50749;51.636;4.948;2023-03-14T13:50:14;100389.91;;;17.66;49.12
59190;BME280;50749;51.636;4.948;2023-03-14T13:52:41;100393.47;;;17.67;49.36
59190;BME280;50749;51.636;4.948;2023-03-14T13:55:14;100404.53;;;17.67;49.69
59190;BME280;50749;51.636;4.948;2023-03-14T13:57:49;100428.63;;;17.66;49.49
59190;BME280;50749;51.636;4.948;2023-03-14T14:00:24;100429.41;;;17.67;49.60
59190;BME280;50749;51.636;4.948;2023-03-14T14:02:57;100434.16;;;17.66;49.68